Alden, IL (60001)

2:46 AM CDT on October 19, 2019 (GMT -0500)
Cornfield | | Change Station
Active Advisory: Flood Warning

Elev 965 ft 42.46 °N, 88.48 °W | Updated 1 minute ago

Clear
Clear
46.1 °F
Feels Like 46 °F
N
0
Wind Variable Wind from South
Gusts 1.0 mph

Today
High -- | Low -- °F
--% Chance of Precip.
Yesterday
High -- | Low -- °F
Precip. -- in
Pressure 29.86 in
Visibility 10.0 miles
Clouds Clear
Windchill 46 °F
Dew Point 41 °F
Humidity 81%
Rainfall 0.00 in
Snow Depth Not available.
7:11 AM 6:05 PM
Waning Gibbous, 73% visible
METAR KBUU 190735Z AUTO 00000KT 10SM CLR 03/03 A2986 RMK AO2 T00310031
Pressure 29.86 in
Visibility 10.0 miles
Clouds Clear
Windchill 46 °F
Dew Point 41 °F
Humidity 81%
Rainfall 0.00 in
Snow Depth Not available.
7:11 AM 6:05 PM
Waning Gibbous, 73% visible
METAR KBUU 190735Z AUTO 00000KT 10SM CLR 03/03 A2986 RMK AO2 T00310031

Get Your Daily Forecast Email!

Thanks for signing up!

Be on the lookout for a verification email in your inbox.

You'll start receiving severe weather alerts in your inbox..

×

10-Day Weather Forecast

Almanac

Astronomy

Oct. 19, 2019 Rise Set
Actual Time
Civil Twilight
Nautical Twilight
Astronomical Twilight
Moon
Length of Visible Light
Length of Day
Tomorrow will be .
, % of the Moon is Illuminated

Today's Extremes

State Highs State Lows

Community

WunderPhotos

Category 6

Welcome to Category 6. This is the collective home for Weather Underground's featured writeups by Dr. Jeff Masters (right), Bob Henson (left), Chris Burt, and other regular contributors.

Nearby

Air Quality

  Air Quality AQ Index Pollutant
Not available.

Snow Depth

Station Depth Elevation

Earthquake Activity

City Distance Mag. Time & Date
Minimum magnitude displayed is 2.5.

Coastal Water Temperatures

Place Temperature

Stations

Nearby Weather Stations

Station Location Temp. Windchill Dew Point Humidity Wind Precip. Elev Updated Type
                   

Watches & Warnings

Flood Warning
Issued: 7:49 PM CDT Oct. 18, 2019 – National Weather Service

The Flood Warning continues for
the Fox River at Algonquin lock & dam tailwater, or from Johnsburg
downstream to Red Gate Road in St. Charles.
* Until late Saturday night.
* At 730 PM Friday the stage was 9.7 feet.
* Flood stage is 9.5 feet.
* Minor flooding is occurring and minor flooding is forecast.
* Forecast... the river will continue to fall to below flood stage by
Saturday evening.
* Impact... at 9.5 feet... boathouses threatened along the river in
Cary.


Lat... Lon 4238 8829 4234 8818 4223 8813 4194 8827
      4195 8838 4219 8830